Time;durP1;ratioP1;P1;durP2;ratioP2;P2;SDS_P1;SDS_P2;PMS_P1;PMS_P2;Temp;Humidity;BMP_temperature;BMP_pressure;BME280_temperature;BME280_humidity;BME280_pressure;Samples;Min_cycle;Max_cycle;Signal;HPM_P1;HPM_P2
2022/04/11 00:01:11;;;;;;;1.67;1.60;;;;;;;7.00;93.50;98868.78;5054084;28;20206;-69
2022/04/11 00:03:38;;;;;;;1.83;1.83;;;;;;;7.09;92.29;98878.22;5054007;28;20201;-69
2022/04/11 00:06:09;;;;;;;1.90;1.90;;;;;;;7.08;93.01;98887.16;5035925;28;20202;-69
2022/04/11 00:08:36;;;;;;;1.77;1.77;;;;;;;7.17;92.69;98893.94;5053689;28;20200;-68
2022/04/11 00:11:03;;;;;;;1.73;1.73;;;;;;;7.10;91.78;98890.44;5036134;28;20346;-68
2022/04/11 00:13:30;;;;;;;1.90;1.90;;;;;;;7.11;91.98;98894.72;5053434;28;20239;-68
2022/04/11 00:15:58;;;;;;;4.10;1.90;;;;;;;7.10;92.18;98901.00;5053844;28;20676;-68
2022/04/11 00:18:27;;;;;;;1.90;1.90;;;;;;;7.07;92.09;98898.72;5035983;28;20752;-68
2022/04/11 00:20:54;;;;;;;2.10;2.10;;;;;;;7.13;91.37;98906.72;5053354;28;20219;-68
2022/04/11 00:23:26;;;;;;;2.13;2.13;;;;;;;7.17;91.71;98902.69;5052895;28;20201;-68
2022/04/11 00:25:54;;;;;;;1.93;1.93;;;;;;;7.13;92.42;98911.16;5053218;28;20571;-68
2022/04/11 00:28:28;;;;;;;1.90;1.90;;;;;;;7.10;92.08;98907.09;5035738;28;20203;-68
2022/04/11 00:31:03;;;;;;;2.77;2.60;;;;;;;7.06;91.76;98911.09;5053372;28;20684;-68
2022/04/11 00:33:30;;;;;;;3.00;2.90;;;;;;;7.01;92.16;98917.94;5053637;28;20280;-68
2022/04/11 00:35:59;;;;;;;3.07;2.97;;;;;;;7.09;92.37;98928.38;5051349;28;20197;-68
2022/04/11 00:38:31;;;;;;;3.47;3.37;;;;;;;7.04;92.49;98925.50;5036230;28;20195;-68
2022/04/11 00:40:57;;;;;;;3.60;3.50;;;;;;;7.11;92.11;98923.75;5052430;28;20250;-68
2022/04/11 00:43:32;;;;;;;3.30;3.20;;;;;;;7.12;92.15;98931.50;5054456;28;20203;-68
2022/04/11 00:46:00;;;;;;;3.13;3.03;;;;;;;7.18;91.38;98940.50;5036174;28;20669;-68
2022/04/11 00:48:28;;;;;;;2.70;2.60;;;;;;;7.11;91.36;98937.75;5053040;28;20204;-69
2022/04/11 00:51:02;;;;;;;3.00;2.80;;;;;;;7.11;92.30;98939.59;5052953;28;20232;-68
2022/04/11 00:53:40;;;;;;;2.53;2.43;;;;;;;7.21;92.04;98950.66;5053603;28;20281;-68
2022/04/11 00:56:11;;;;;;;2.20;2.10;;;;;;;7.15;90.93;98946.16;5054019;28;20200;-69
2022/04/11 00:58:40;;;;;;;2.10;2.10;;;;;;;7.21;91.35;98953.31;5052988;28;20525;-69
2022/04/11 01:01:09;;;;;;;2.00;2.00;;;;;;;7.09;91.60;98949.50;5053466;28;20196;-69
2022/04/11 01:03:36;;;;;;;1.77;1.77;;;;;;;7.17;91.71;98957.31;5052572;28;20659;-69
2022/04/11 01:06:06;;;;;;;1.90;1.90;;;;;;;7.14;90.82;98955.06;5052797;28;20279;-69
2022/04/11 01:08:38;;;;;;;1.73;1.63;;;;;;;7.13;91.39;98969.25;5053147;28;20216;-68
2022/04/11 01:11:06;;;;;;;2.30;2.20;;;;;;;7.11;90.93;98963.38;5052581;28;20239;-67
2022/04/11 01:13:35;;;;;;;2.40;2.30;;;;;;;7.04;91.36;98960.66;5052664;28;20558;-68
2022/04/11 01:16:06;;;;;;;2.07;2.07;;;;;;;7.15;91.15;98967.28;5053057;28;20197;-67
2022/04/11 01:18:37;;;;;;;2.07;2.07;;;;;;;7.02;91.19;98956.56;5052490;28;20717;-67
2022/04/11 01:21:06;;;;;;;1.93;1.83;;;;;;;7.16;91.08;98984.75;5052990;28;20207;-67
2022/04/11 01:23:41;;;;;;;1.90;1.80;;;;;;;7.12;90.24;98972.91;5052238;28;20279;-68
2022/04/11 01:26:08;;;;;;;2.10;2.10;;;;;;;7.16;89.95;98979.47;5052332;28;20680;-67
2022/04/11 01:28:40;;;;;;;2.20;2.20;;;;;;;7.13;90.31;98990.38;5052347;28;20684;-68
2022/04/11 01:31:07;;;;;;;2.10;2.00;;;;;;;7.16;89.76;98987.38;5052966;28;20208;-67
2022/04/11 01:33:37;;;;;;;2.00;1.90;;;;;;;7.14;89.99;98997.34;5034488;28;20195;-67
2022/04/11 01:36:06;;;;;;;2.10;2.07;;;;;;;7.17;89.51;98996.94;5051770;28;20205;-67
2022/04/11 01:38:34;;;;;;;2.27;2.17;;;;;;;7.10;89.56;98982.88;5034400;28;20660;-67
2022/04/11 01:41:12;;;;;;;2.20;2.10;;;;;;;7.11;90.30;99000.34;5034280;28;20196;-67
2022/04/11 01:43:39;;;;;;;2.07;1.97;;;;;;;7.09;90.47;98999.69;5051896;28;20257;-67
2022/04/11 01:46:08;;;;;;;1.90;1.80;;;;;;;7.16;89.82;98996.13;5034418;28;20228;-67
2022/04/11 01:48:38;;;;;;;2.30;2.20;;;;;;;7.16;90.04;99011.16;5052034;28;20668;-67
2022/04/11 01:51:07;;;;;;;2.10;2.00;;;;;;;7.11;90.30;99005.63;5052836;28;20216;-68
2022/04/11 01:53:37;;;;;;;2.70;2.60;;;;;;;7.05;90.47;99009.81;5034477;28;20203;-67
2022/04/11 01:56:08;;;;;;;2.20;2.10;;;;;;;7.04;90.61;99013.47;5052437;28;20263;-67
2022/04/11 01:58:39;;;;;;;2.43;2.33;;;;;;;7.22;89.83;99026.28;5052211;28;20203;-67
2022/04/11 02:01:15;;;;;;;2.40;2.30;;;;;;;7.16;90.33;99027.00;5034900;28;20588;-67
2022/04/11 02:03:44;;;;;;;2.60;2.50;;;;;;;7.09;90.36;99031.38;5035875;28;20216;-67
2022/04/11 02:06:16;;;;;;;2.50;2.30;;;;;;;7.06;90.66;99037.03;5051634;28;20277;-67
2022/04/11 02:08:50;;;;;;;2.90;2.80;;;;;;;7.10;91.45;99033.03;5051774;28;20269;-68
2022/04/11 02:11:17;;;;;;;2.60;2.50;;;;;;;7.06;91.62;99037.84;5034527;28;20216;-67
2022/04/11 02:13:45;;;;;;;2.77;2.67;;;;;;;6.96;90.93;99039.13;5051663;28;20230;-67
2022/04/11 02:16:16;;;;;;;2.50;2.40;;;;;;;7.08;91.43;99045.59;5051981;28;20201;-67
2022/04/11 02:18:44;;;;;;;2.57;2.47;;;;;;;7.14;90.70;99052.78;5051671;28;20645;-67
2022/04/11 02:21:11;;;;;;;2.40;2.30;;;;;;;7.14;91.66;99050.94;5051678;28;20634;-67
2022/04/11 02:23:38;;;;;;;2.87;2.77;;;;;;;7.12;91.34;99062.69;5051678;28;20192;-67
2022/04/11 02:26:10;;;;;;;3.07;2.97;;;;;;;7.07;90.71;99054.50;5051512;28;20207;-66
2022/04/11 02:28:36;;;;;;;3.10;3.00;;;;;;;7.04;91.10;99078.63;5034017;28;20268;-67
2022/04/11 02:31:03;;;;;;;2.80;2.67;;;;;;;7.12;90.68;99067.97;5051471;28;20228;-67
2022/04/11 02:33:31;;;;;;;2.50;2.40;;;;;;;7.18;90.20;99088.38;5051988;28;20552;-67
2022/04/11 02:36:05;;;;;;;3.30;3.20;;;;;;;7.10;90.30;99085.84;5051345;28;20198;-67
2022/04/11 02:38:33;;;;;;;3.17;2.93;;;;;;;7.22;90.04;99098.38;5033888;28;20250;-67
2022/04/11 02:41:01;;;;;;;2.80;2.70;;;;;;;7.20;89.75;99110.97;5051315;28;20206;-67
2022/04/11 02:43:30;;;;;;;2.97;2.87;;;;;;;7.20;90.97;99113.59;5052090;28;20199;-67
2022/04/11 02:45:58;;;;;;;3.40;3.30;;;;;;;7.19;90.30;99116.44;5053618;28;20192;-67
2022/04/11 02:48:26;;;;;;;3.23;3.03;;;;;;;7.31;90.82;99113.13;5055308;28;20554;-67
2022/04/11 02:51:04;;;;;;;2.83;2.73;;;;;;;7.27;90.54;99124.25;5037407;28;20307;-67
2022/04/11 02:53:32;;;;;;;2.80;2.70;;;;;;;7.18;90.58;99126.16;5055290;28;20204;-68
2022/04/11 02:56:01;;;;;;;3.10;2.90;;;;;;;7.17;90.61;99139.53;5055091;28;20200;-68
2022/04/11 02:58:28;;;;;;;3.40;3.20;;;;;;;7.28;90.78;99141.72;5037535;28;20237;-68
2022/04/11 03:01:03;;;;;;;3.33;3.13;;;;;;;7.27;90.53;99145.38;5037433;28;20572;-68
2022/04/11 03:03:30;;;;;;;2.90;2.70;;;;;;;7.28;89.99;99153.13;5054675;28;20291;-68
2022/04/11 03:05:58;;;;;;;2.90;2.80;;;;;;;7.37;90.00;99161.75;5054881;28;20271;-68
2022/04/11 03:08:25;;;;;;;3.20;3.00;;;;;;;7.46;89.04;99160.66;5055292;28;20672;-68
2022/04/11 03:10:53;;;;;;;3.87;3.67;;;;;;;7.44;89.14;99149.47;5054250;28;20769;-68
2022/04/11 03:13:21;;;;;;;2.90;2.70;;;;;;;7.58;88.79;99167.09;5036742;28;20289;-68
2022/04/11 03:15:50;;;;;;;3.50;3.30;;;;;;;7.62;89.05;99176.31;5054766;28;20197;-68
2022/04/11 03:18:20;;;;;;;5.00;4.70;;;;;;;7.67;89.05;99184.53;5036881;28;20200;-68
2022/04/11 03:20:48;;;;;;;3.40;3.20;;;;;;;7.91;89.49;99181.53;5054467;28;20200;-68
2022/04/11 03:23:16;;;;;;;3.47;3.27;;;;;;;7.78;88.06;99191.94;5037498;28;20192;-67
2022/04/11 03:25:54;;;;;;;3.67;3.50;;;;;;;7.72;88.00;99198.00;5036648;28;20189;-68
2022/04/11 03:28:22;;;;;;;3.53;3.43;;;;;;;7.71;88.89;99196.34;5054244;28;20185;-68
2022/04/11 03:30:50;;;;;;;3.20;3.07;;;;;;;7.71;89.65;99201.63;5054318;28;20224;-67
2022/04/11 03:33:21;;;;;;;3.10;2.90;;;;;;;7.60;88.41;99204.75;5054607;28;20207;-68
2022/04/11 03:35:48;;;;;;;3.40;3.10;;;;;;;7.70;88.74;99202.63;5055502;28;20590;-68
2022/04/11 03:38:15;;;;;;;3.00;2.90;;;;;;;7.77;89.44;99211.47;5054596;28;20207;-68
2022/04/11 03:40:42;;;;;;;3.80;3.50;;;;;;;7.77;89.66;99211.47;5054094;28;20652;-68
2022/04/11 03:43:09;;;;;;;3.93;3.63;;;;;;;7.90;89.61;99220.38;5054564;28;20191;-68
2022/04/11 03:45:36;;;;;;;4.00;3.80;;;;;;;8.09;90.08;99224.25;5053906;28;20200;-67
2022/04/11 03:48:03;;;;;;;3.10;3.00;;;;;;;8.07;89.45;99231.56;5053870;28;20274;-67
2022/04/11 03:50:32;;;;;;;3.30;3.20;;;;;;;8.17;89.76;99230.25;5053827;28;20229;-67
2022/04/11 03:53:01;;;;;;;3.93;3.73;;;;;;;8.20;88.81;99236.97;5036197;28;20661;-68
2022/04/11 03:55:28;;;;;;;3.57;3.33;;;;;;;8.15;88.81;99242.03;5054260;28;20196;-68
2022/04/11 03:57:55;;;;;;;3.80;3.60;;;;;;;8.14;89.57;99240.38;5053836;28;20673;-68
2022/04/11 04:00:28;;;;;;;2.60;2.50;;;;;;;8.21;88.82;99242.13;5054266;28;20203;-68
2022/04/11 04:02:58;;;;;;;2.63;2.53;;;;;;;8.24;88.03;99251.50;5054114;28;20723;-69
2022/04/11 04:05:27;;;;;;;2.80;2.60;;;;;;;8.09;89.65;99253.38;5053989;28;20196;-69
2022/04/11 04:07:57;;;;;;;2.80;2.70;;;;;;;8.04;89.11;99261.03;5054495;28;20661;-69
2022/04/11 04:10:26;;;;;;;2.77;2.57;;;;;;;8.14;89.57;99269.50;5054335;28;20193;-69
2022/04/11 04:12:58;;;;;;;2.83;2.63;;;;;;;8.16;88.76;99267.47;5053990;28;20693;-69
2022/04/11 04:15:24;;;;;;;2.67;2.50;;;;;;;8.28;90.33;99274.78;5035487;28;20267;-68
2022/04/11 04:17:52;;;;;;;3.43;3.20;;;;;;;8.26;91.80;99276.81;5054143;28;20196;-72
2022/04/11 04:20:19;;;;;;;3.10;2.93;;;;;;;8.25;90.31;99274.34;5035914;28;20291;-72
2022/04/11 04:22:46;;;;;;;2.40;2.30;;;;;;;8.29;89.88;99291.47;5054042;28;20708;-73
2022/04/11 04:25:14;;;;;;;2.30;2.20;;;;;;;8.38;90.24;99279.78;5054208;28;20192;-73
2022/04/11 04:27:41;;;;;;;8.30;7.67;;;;;;;8.31;89.42;99294.75;5053618;28;20258;-75
2022/04/11 04:30:09;;;;;;;2.30;2.20;;;;;;;8.18;90.09;99294.56;5052881;28;20638;-72
2022/04/11 04:32:36;;;;;;;2.20;2.10;;;;;;;8.19;89.93;99302.31;5018971;28;20342;-71
2022/04/11 04:35:06;;;;;;;2.23;2.13;;;;;;;8.16;89.39;99305.31;5035100;28;20197;-69
2022/04/11 04:37:34;;;;;;;1.87;1.77;;;;;;;8.12;90.20;99305.88;5054471;28;20201;-73
2022/04/11 04:40:03;;;;;;;2.17;2.07;;;;;;;8.07;90.12;99316.19;5055122;28;20197;-73
2022/04/11 04:42:31;;;;;;;1.93;1.83;;;;;;;7.97;90.35;99318.31;5053772;28;20208;-73
2022/04/11 04:44:59;;;;;;;4.40;1.90;;;;;;;8.17;92.42;99314.91;5035605;28;20196;-71
2022/04/11 04:47:26;;;;;;;1.60;1.60;;;;;;;8.80;94.75;99327.44;5036186;28;20193;-69
2022/04/11 04:49:53;;;;;;;1.57;1.57;;;;;;;8.55;88.27;99329.66;5052878;28;20543;-69
2022/04/11 04:52:19;;;;;;;1.90;1.80;;;;;;;8.54;87.56;99335.13;5052815;28;20286;-69
2022/04/11 04:54:46;;;;;;;1.20;1.20;;;;;;;8.64;88.91;99344.41;5052780;28;20242;-69
2022/04/11 04:57:13;;;;;;;1.43;1.30;;;;;;;8.45;87.92;99338.91;5053035;28;20254;-67
2022/04/11 04:59:41;;;;;;;1.30;1.30;;;;;;;8.35;87.71;99354.22;5053079;28;20192;-70
2022/04/11 05:02:08;;;;;;;1.20;1.20;;;;;;;8.12;89.38;99353.47;5053079;28;20624;-70
2022/04/11 05:04:35;;;;;;;1.60;1.60;;;;;;;8.08;88.45;99363.63;5052522;28;20192;-71
2022/04/11 05:07:01;;;;;;;1.43;1.40;;;;;;;7.96;88.15;99364.28;5053000;28;20208;-71
2022/04/11 05:09:28;;;;;;;1.50;1.50;;;;;;;8.07;88.13;99363.81;5052286;28;20725;-71
2022/04/11 05:11:55;;;;;;;2.40;1.40;;;;;;;8.17;88.16;99364.34;5053229;28;20220;-71
2022/04/11 05:14:21;;;;;;;1.73;1.63;;;;;;;8.13;87.99;99368.38;5052435;28;20290;-71
2022/04/11 05:16:50;;;;;;;1.60;1.50;;;;;;;8.07;87.79;99369.94;5052402;28;20242;-69
2022/04/11 05:19:16;;;;;;;1.00;0.93;;;;;;;7.73;87.28;99368.81;5051754;28;20558;-69
2022/04/11 05:21:43;;;;;;;1.10;1.10;;;;;;;7.88;86.10;99367.00;5051773;28;20197;-68
2022/04/11 05:24:10;;;;;;;1.60;1.50;;;;;;;8.02;85.62;99371.47;5034163;28;20201;-68
2022/04/11 05:26:37;;;;;;;1.70;1.60;;;;;;;8.06;86.72;99362.16;5031762;28;20192;-66
2022/04/11 05:29:04;;;;;;;1.50;1.50;;;;;;;8.15;86.38;99374.28;5031409;28;20655;-67
2022/04/11 05:31:31;;;;;;;2.43;1.50;;;;;;;8.56;84.45;99367.50;5048170;28;20251;-73
2022/04/11 05:34:01;;;;;;;1.43;1.17;;;;;;;9.37;82.61;99378.53;5041151;28;20259;-67
2022/04/11 05:36:28;;;;;;;3.13;1.53;;;;;;;9.58;84.45;99376.69;5049009;28;20197;-64
2022/04/11 05:38:54;;;;;;;3.87;1.73;;;;;;;9.46;79.70;99378.22;5044584;28;20582;-63
2022/04/11 05:41:21;;;;;;;1.70;1.60;;;;;;;9.38;78.85;99380.16;5050700;28;20192;-62
2022/04/11 05:43:48;;;;;;;2.60;1.20;;;;;;;9.46;79.54;99375.56;5051025;28;20197;-65
2022/04/11 05:46:15;;;;;;;1.70;1.60;;;;;;;9.91;78.90;99379.53;5051387;28;20247;-63
2022/04/11 05:48:42;;;;;;;2.33;2.23;;;;;;;10.85;74.23;99392.88;5049319;28;20273;-65
2022/04/11 05:51:10;;;;;;;2.10;2.00;;;;;;;11.26;70.37;99404.22;5031669;28;20222;-65
2022/04/11 05:53:37;;;;;;;1.80;1.70;;;;;;;11.25;70.53;99410.56;5045147;28;20251;-66
2022/04/11 05:56:04;;;;;;;1.63;1.60;;;;;;;10.93;70.02;99396.19;5049863;28;20697;-66
2022/04/11 05:58:31;;;;;;;1.30;1.20;;;;;;;10.49;71.33;99401.16;5049861;28;20188;-64
2022/04/11 06:00:57;;;;;;;1.70;1.60;;;;;;;10.33;72.45;99395.34;5050016;28;20189;-63
2022/04/11 06:03:24;;;;;;;1.50;1.40;;;;;;;10.68;71.90;99402.25;5047362;28;20228;-64
2022/04/11 06:05:51;;;;;;;1.57;1.50;;;;;;;10.52;72.53;99392.78;5050730;28;20192;-62
2022/04/11 06:08:19;;;;;;;1.50;1.40;;;;;;;10.41;73.28;99392.50;5048974;28;20197;-62
2022/04/11 06:10:46;;;;;;;1.40;1.27;;;;;;;10.63;72.58;99394.06;5050443;28;20193;-65
2022/04/11 06:13:13;;;;;;;1.10;1.10;;;;;;;11.08;70.64;99388.84;5048268;28;20221;-64
2022/04/11 06:15:40;;;;;;;5.20;1.80;;;;;;;11.81;69.05;99411.03;5008590;28;1116802;-61
2022/04/11 06:18:07;;;;;;;1.53;1.53;;;;;;;11.81;68.61;99411.88;5051640;28;20254;-61
2022/04/11 06:20:33;;;;;;;1.80;1.70;;;;;;;11.72;70.09;99401.63;5053085;28;20622;-62
2022/04/11 06:23:00;;;;;;;2.00;1.33;;;;;;;11.27;69.37;99407.72;5055990;28;20648;-61
2022/04/11 06:25:28;;;;;;;1.83;1.73;;;;;;;11.13;69.98;99406.88;5055546;28;20578;-63
2022/04/11 06:27:55;;;;;;;1.30;1.20;;;;;;;10.86;72.68;99391.88;5055532;28;20255;-65
2022/04/11 06:30:21;;;;;;;1.10;1.00;;;;;;;10.57;72.87;99413.41;5048826;28;20229;-65
2022/04/11 06:32:48;;;;;;;1.40;1.40;;;;;;;10.38;73.07;99411.50;5036070;28;20259;-66
2022/04/11 06:35:15;;;;;;;1.57;1.40;;;;;;;10.43;73.99;99414.38;5035779;28;20198;-67
2022/04/11 06:37:42;;;;;;;3.60;1.40;;;;;;;10.73;72.78;99421.06;5035674;28;20224;-67
2022/04/11 06:40:10;;;;;;;2.03;1.83;;;;;;;10.78;72.16;99429.25;5051045;28;20248;-66
2022/04/11 06:42:38;;;;;;;1.67;1.57;;;;;;;11.00;70.36;99423.59;5055274;28;20246;-65
2022/04/11 06:45:06;;;;;;;1.73;1.63;;;;;;;10.98;70.68;99408.88;5050299;28;20259;-66
2022/04/11 06:47:33;;;;;;;1.80;1.70;;;;;;;11.47;70.78;99435.97;5054208;28;20247;-64
2022/04/11 06:50:00;;;;;;;1.60;1.50;;;;;;;11.33;68.38;99442.28;5054988;28;20671;-63
2022/04/11 06:52:27;;;;;;;2.63;1.53;;;;;;;11.64;69.87;99437.22;5055318;28;20279;-62
2022/04/11 06:54:53;;;;;;;1.80;1.70;;;;;;;11.32;68.77;99464.59;5055082;28;20196;-63
2022/04/11 06:57:20;;;;;;;1.50;1.40;;;;;;;11.47;69.34;99454.56;5054790;28;20268;-65
2022/04/11 06:59:48;;;;;;;1.30;1.10;;;;;;;11.89;66.12;99478.22;5033038;28;20690;-65
2022/04/11 07:02:15;;;;;;;1.53;1.43;;;;;;;12.55;64.86;99478.94;5047854;28;20249;-65
2022/04/11 07:04:41;;;;;;;1.47;1.43;;;;;;;12.99;63.99;99481.69;5053121;28;20554;-65
2022/04/11 07:07:08;;;;;;;1.40;1.40;;;;;;;13.19;59.01;99496.56;5053190;28;20266;-65
2022/04/11 07:09:35;;;;;;;0.90;0.90;;;;;;;12.87;59.92;99494.81;5052731;28;20254;-64
2022/04/11 07:12:01;;;;;;;1.00;0.97;;;;;;;12.65;58.74;99501.44;5052633;28;20220;-65
2022/04/11 07:14:28;;;;;;;3.27;1.10;;;;;;;12.18;61.27;99512.41;5052119;28;20295;-65
2022/04/11 07:16:56;;;;;;;3.80;1.33;;;;;;;12.03;63.15;99511.78;5052604;28;20638;-63
2022/04/11 07:19:23;;;;;;;3.07;1.40;;;;;;;11.72;63.72;99503.56;5051649;28;20260;-65
2022/04/11 07:21:50;;;;;;;1.97;1.87;;;;;;;11.85;66.87;99508.06;5054500;28;20198;-63
2022/04/11 07:24:16;;;;;;;1.70;1.60;;;;;;;11.61;64.06;99512.16;5054749;28;20195;-63
2022/04/11 07:26:43;;;;;;;1.67;1.57;;;;;;;11.55;65.50;99512.91;5055216;28;20193;-65
2022/04/11 07:29:10;;;;;;;1.50;1.50;;;;;;;11.90;66.10;99527.75;5054332;28;20660;-64
2022/04/11 07:31:37;;;;;;;1.30;1.20;;;;;;;11.44;69.27;99510.03;5053346;28;20295;-65
2022/04/11 07:34:05;;;;;;;1.60;1.50;;;;;;;11.59;65.88;99524.00;5054251;28;20199;-65
2022/04/11 07:36:32;;;;;;;1.80;1.70;;;;;;;11.32;66.92;99533.72;5054031;28;20267;-63
2022/04/11 07:38:58;;;;;;;1.57;1.47;;;;;;;11.48;67.01;99533.38;5043869;28;20197;-64
2022/04/11 07:41:26;;;;;;;1.07;1.07;;;;;;;11.47;67.71;99528.25;5054048;28;20193;-64
2022/04/11 07:43:53;;;;;;;1.20;1.20;;;;;;;11.62;66.24;99534.22;5054130;28;20727;-65
2022/04/11 07:46:20;;;;;;;0.87;0.87;;;;;;;11.52;66.89;99536.44;5053813;28;20242;-63
2022/04/11 07:48:47;;;;;;;1.20;1.07;;;;;;;11.58;63.49;99555.06;5054565;28;20194;-64
2022/04/11 07:51:15;;;;;;;1.10;1.10;;;;;;;11.79;63.93;99554.13;5054027;28;20249;-63
2022/04/11 07:53:41;;;;;;;1.20;1.20;;;;;;;11.69;65.24;99551.03;5053901;28;20218;-63
2022/04/11 07:56:08;;;;;;;1.00;1.00;;;;;;;11.64;63.91;99564.13;5053955;28;20846;-64
2022/04/11 07:58:35;;;;;;;1.47;1.10;;;;;;;11.45;63.38;99559.53;5054093;28;20252;-64
2022/04/11 08:01:02;;;;;;;1.83;1.57;;;;;;;11.17;63.47;99567.63;5053617;28;20200;-64
2022/04/11 08:03:28;;;;;;;4.00;1.37;;;;;;;11.31;64.54;99563.97;5053756;28;20259;-64
2022/04/11 08:05:55;;;;;;;1.33;1.30;;;;;;;11.14;64.40;99567.19;5053569;28;20198;-64
2022/04/11 08:08:23;;;;;;;1.87;1.70;;;;;;;10.89;65.11;99572.16;5053102;28;20252;-61
2022/04/11 08:10:50;;;;;;;3.03;2.00;;;;;;;10.99;64.64;99573.44;5053098;28;20623;-63
2022/04/11 08:13:16;;;;;;;1.20;1.20;;;;;;;11.02;63.90;99580.22;5053351;28;20222;-61
2022/04/11 08:15:43;;;;;;;1.10;1.10;;;;;;;11.14;65.17;99573.31;5053960;28;20261;-61
2022/04/11 08:18:10;;;;;;;1.53;1.40;;;;;;;11.17;63.40;99586.22;5053310;28;20239;-60
2022/04/11 08:20:36;;;;;;;10.63;1.83;;;;;;;11.07;62.45;99578.59;5053268;28;20193;-61
2022/04/11 08:23:03;;;;;;;1.50;1.33;;;;;;;10.93;62.50;99592.03;5053714;28;20254;-60
2022/04/11 08:25:31;;;;;;;1.40;1.30;;;;;;;11.23;63.16;99580.09;5053224;28;20198;-62
2022/04/11 08:27:58;;;;;;;1.27;1.27;;;;;;;11.43;62.93;99591.66;5053233;28;20248;-62
2022/04/11 08:30:24;;;;;;;1.73;1.40;;;;;;;11.73;61.84;99590.38;5053193;28;20193;-62
2022/04/11 08:32:53;;;;;;;1.40;1.30;;;;;;;11.67;61.26;99604.44;5053233;28;20285;-62
2022/04/11 08:35:22;;;;;;;1.33;1.33;;;;;;;12.07;63.77;99603.53;5053437;28;20200;-61
2022/04/11 08:37:49;;;;;;;2.60;2.40;;;;;;;13.25;69.63;99583.75;5035482;28;20191;-61
2022/04/11 08:40:18;;;;;;;4.07;2.07;;;;;;;13.56;67.74;99570.47;5052863;28;20591;-62
2022/04/11 08:42:48;;;;;;;5.27;1.27;;;;;;;14.12;59.31;99615.94;5051386;28;20199;-60
2022/04/11 08:45:17;;;;;;;1.33;1.30;;;;;;;13.82;55.11;99625.56;5053264;28;20547;-62
2022/04/11 08:47:44;;;;;;;1.40;1.40;;;;;;;13.51;61.05;99610.31;5052204;28;20197;-63
2022/04/11 08:50:12;;;;;;;2.43;1.50;;;;;;;13.83;55.21;99640.56;5052575;28;20250;-62
2022/04/11 08:52:39;;;;;;;1.77;1.57;;;;;;;13.57;52.99;99644.19;5052947;28;20315;-61
2022/04/11 08:55:07;;;;;;;1.23;1.23;;;;;;;13.68;52.43;99643.50;5053100;28;20201;-61
2022/04/11 08:57:36;;;;;;;1.50;1.50;;;;;;;13.58;52.92;99632.47;5053058;28;20192;-60
2022/04/11 09:00:07;;;;;;;1.93;1.83;;;;;;;13.79;51.55;99640.19;5050587;28;20258;-61
2022/04/11 09:02:35;;;;;;;1.90;1.67;;;;;;;13.74;50.39;99642.66;5043033;28;20627;-60
2022/04/11 09:05:02;;;;;;;15.40;2.30;;;;;;;13.68;51.44;99650.72;5032857;28;20198;-60
2022/04/11 09:07:47;;;;;;;3.27;1.50;;;;;;;13.46;51.48;99654.69;5033024;28;20201;-61
2022/04/11 09:10:18;;;;;;;3.47;1.97;;;;;;;13.00;52.95;99649.47;5032585;28;20244;-61
2022/04/11 09:12:47;;;;;;;4.30;2.43;;;;;;;13.06;53.01;99653.97;5033565;28;20209;-61
2022/04/11 09:15:16;;;;;;;2.50;1.60;;;;;;;12.97;51.88;99655.22;5031400;28;20229;-63
2022/04/11 09:17:43;;;;;;;2.07;1.70;;;;;;;12.84;52.75;99665.03;5052249;28;20763;-60
2022/04/11 09:20:12;;;;;;;1.70;1.60;;;;;;;12.74;52.77;99664.63;5052359;28;20196;-60
2022/04/11 09:22:39;;;;;;;3.77;1.63;;;;;;;12.28;53.92;99667.25;5052620;28;20295;-60
2022/04/11 09:25:10;;;;;;;4.07;2.53;;;;;;;12.19;53.75;99652.50;5052438;28;20196;-60
2022/04/11 09:27:37;;;;;;;14.40;2.93;;;;;;;12.41;53.78;99653.94;5052220;28;20642;-61
2022/04/11 09:30:19;;;;;;;3.53;2.33;;;;;;;12.20;53.59;99672.78;5052093;28;20199;-61
2022/04/11 09:33:00;;;;;;;9.53;2.43;;;;;;;12.19;54.35;99665.81;5051762;28;20261;-63
2022/04/11 09:35:29;;;;;;;6.20;3.10;;;;;;;12.31;54.62;99676.69;5050221;28;20216;-62
2022/04/11 09:38:13;;;;;;;8.23;2.83;;;;;;;12.32;55.49;99680.97;5049918;28;20652;-63
2022/04/11 09:40:41;;;;;;;2.37;2.20;;;;;;;12.05;54.75;99689.94;5050092;28;20731;-62
2022/04/11 09:43:08;;;;;;;6.57;3.00;;;;;;;12.06;55.65;99686.25;5050336;28;20251;-62
2022/04/11 09:45:42;;;;;;;2.40;2.20;;;;;;;12.21;56.16;99689.59;5050247;28;20198;-63
2022/04/11 09:48:10;;;;;;;24.03;3.33;;;;;;;12.18;56.09;99700.63;5047433;28;20638;-62
2022/04/11 09:50:36;;;;;;;3.13;2.30;;;;;;;12.25;54.28;99710.28;5051724;28;20601;-61
2022/04/11 09:53:10;;;;;;;2.50;2.40;;;;;;;12.24;54.65;99711.31;5052158;28;20223;-61
2022/04/11 09:55:37;;;;;;;2.60;2.50;;;;;;;12.19;55.13;99707.59;5051681;28;20684;-61
2022/04/11 09:58:05;;;;;;;20.53;3.30;;;;;;;12.01;54.55;99707.34;5052412;28;20206;-60
2022/04/11 10:00:35;;;;;;;9.83;3.00;;;;;;;12.10;55.53;99706.13;5051716;28;20196;-60
2022/04/11 10:03:05;;;;;;;2.33;2.23;;;;;;;11.78;55.30;99707.66;5052285;28;20202;-61
2022/04/11 10:05:33;;;;;;;6.87;2.70;;;;;;;11.66;55.33;99711.91;5051876;28;20575;-61
2022/04/11 10:08:01;;;;;;;2.60;2.40;;;;;;;11.69;54.65;99716.84;5051943;28;20199;-61
2022/04/11 10:10:27;;;;;;;2.80;2.60;;;;;;;11.75;53.87;99716.03;5051951;28;20196;-61
2022/04/11 10:12:56;;;;;;;2.93;2.73;;;;;;;11.76;54.01;99714.22;5051958;28;20219;-62
2022/04/11 10:15:24;;;;;;;7.47;3.30;;;;;;;11.70;55.54;99702.50;5051834;28;20226;-62
2022/04/11 10:17:53;;;;;;;3.20;2.90;;;;;;;11.89;55.25;99712.44;5051564;28;20195;-62
2022/04/11 10:20:29;;;;;;;2.70;2.57;;;;;;;11.67;54.64;99712.75;5051580;28;20207;-62
2022/04/11 10:23:03;;;;;;;7.20;4.43;;;;;;;11.86;54.26;99717.31;5051516;28;20216;-62
2022/04/11 10:25:36;;;;;;;2.73;2.63;;;;;;;11.78;54.43;99712.16;5052007;28;20213;-61
2022/04/11 10:28:18;;;;;;;7.23;2.90;;;;;;;11.95;55.49;99724.94;5051515;28;20183;-62
2022/04/11 10:30:46;;;;;;;3.00;2.80;;;;;;;12.13;54.31;99721.72;5051422;28;20191;-62
2022/04/11 10:33:13;;;;;;;13.43;3.00;;;;;;;12.46;55.83;99714.63;5051254;28;20220;-60
2022/04/11 10:35:45;;;;;;;5.07;2.80;;;;;;;12.59;52.67;99723.47;5051194;28;20587;-60
2022/04/11 10:38:15;;;;;;;2.90;2.70;;;;;;;12.53;52.72;99726.94;5051359;28;20185;-60
2022/04/11 10:40:48;;;;;;;2.93;2.67;;;;;;;12.49;53.57;99719.56;5042968;28;20224;-60
2022/04/11 10:43:16;;;;;;;3.23;2.00;;;;;;;12.56;52.77;99717.72;5031413;28;20655;-61
2022/04/11 10:45:45;;;;;;;2.73;2.53;;;;;;;12.53;52.92;99718.13;5038038;28;20189;-61
2022/04/11 10:48:13;;;;;;;2.87;2.40;;;;;;;12.90;58.32;99698.88;5048651;28;20265;-60
2022/04/11 10:50:41;;;;;;;3.10;2.87;;;;;;;13.03;48.31;99715.69;5052194;28;20261;-60
2022/04/11 10:53:27;;;;;;;8.90;2.50;;;;;;;13.14;49.55;99731.09;5051267;28;20684;-60
2022/04/11 10:55:59;;;;;;;2.63;2.50;;;;;;;13.37;49.25;99718.13;5051223;28;20187;-60
2022/04/11 10:58:48;;;;;;;2.07;1.97;;;;;;;13.77;48.76;99724.19;5051260;28;20181;-60
2022/04/11 11:01:16;;;;;;;3.67;2.23;;;;;;;13.51;45.81;99725.06;5051520;28;20225;-60
2022/04/11 11:03:58;;;;;;;2.30;2.20;;;;;;;13.26;46.35;99716.09;5050751;28;20571;-60
2022/04/11 11:06:25;;;;;;;2.30;2.20;;;;;;;13.24;46.81;99720.81;5052084;28;20595;-61
2022/04/11 11:08:53;;;;;;;8.20;3.67;;;;;;;13.33;47.23;99708.09;5055024;28;20192;-60
2022/04/11 11:11:23;;;;;;;2.90;2.57;;;;;;;13.63;47.01;99719.91;5054963;28;20298;-60
2022/04/11 11:13:51;;;;;;;3.17;2.60;;;;;;;13.58;46.44;99717.88;5055043;28;20325;-60
2022/04/11 11:16:58;;;;;;;7.00;2.90;;;;;;;14.01;45.81;99712.81;5054992;28;20189;-60
2022/04/11 11:19:25;;;;;;;2.60;2.40;;;;;;;14.16;42.55;99711.47;5054920;28;20184;-59
2022/04/11 11:21:59;;;;;;;2.80;2.63;;;;;;;14.15;41.63;99714.34;5054413;28;20693;-60
2022/04/11 11:24:28;;;;;;;3.57;1.80;;;;;;;14.20;40.86;99712.69;5053687;28;20199;-62
2022/04/11 11:26:57;;;;;;;2.40;2.30;;;;;;;14.39;40.84;99711.81;5054510;28;20193;-61
2022/04/11 11:29:26;;;;;;;14.03;2.53;;;;;;;14.41;39.76;99704.38;5054383;28;20203;-61
2022/04/11 11:31:55;;;;;;;5.77;2.53;;;;;;;14.28;40.70;99703.63;5054549;28;20200;-61
2022/04/11 11:34:24;;;;;;;4.50;2.40;;;;;;;14.57;40.24;99697.69;5054444;28;20220;-60
2022/04/11 11:36:53;;;;;;;5.23;2.20;;;;;;;14.80;41.02;99698.75;5054476;28;20258;-58
2022/04/11 11:39:21;;;;;;;6.53;2.27;;;;;;;14.97;40.17;99688.31;5055073;28;20204;-60
2022/04/11 11:41:50;;;;;;;7.43;2.53;;;;;;;14.85;38.08;99709.63;5054544;28;20188;-60
2022/04/11 11:44:18;;;;;;;2.37;2.00;;;;;;;14.73;38.56;99695.31;5054491;28;20200;-60